createdAt,value
2023-02-24T00:01:15.344Z,4.60
2023-02-24T00:06:17.499Z,4.25
2023-02-24T00:11:20.106Z,4.38
2023-02-24T00:16:27.316Z,3.83
2023-02-24T00:21:30.166Z,3.15
2023-02-24T00:26:33.029Z,3.70
2023-02-24T00:31:39.577Z,3.72
2023-02-24T00:36:41.977Z,4.25
2023-02-24T00:41:46.568Z,3.25
2023-02-24T00:46:48.577Z,3.42
2023-02-24T00:51:54.233Z,3.72
2023-02-24T00:56:57.578Z,3.15
2023-02-24T01:01:59.962Z,3.85
2023-02-24T01:07:02.148Z,3.08
2023-02-24T01:12:26.425Z,2.75
2023-02-24T01:17:28.537Z,2.97
2023-02-24T01:22:30.598Z,2.67
2023-02-24T01:27:32.896Z,3.05
2023-02-24T01:32:35.314Z,3.10
2023-02-24T01:37:38.269Z,2.83
2023-02-24T01:42:42.141Z,3.35
2023-02-24T01:47:47.238Z,3.30
2023-02-24T01:52:51.797Z,3.00
2023-02-24T01:57:54.208Z,2.35
2023-02-24T02:03:00.606Z,2.58
2023-02-24T02:08:03.183Z,2.70
2023-02-24T02:13:06.113Z,2.30
2023-02-24T02:18:27.051Z,2.33
2023-02-24T02:24:03.877Z,2.47
2023-02-24T02:29:22.101Z,2.45
2023-02-24T02:34:33.299Z,2.50
2023-02-24T02:39:43.358Z,2.70
2023-02-24T02:44:56.041Z,3.35
2023-02-24T02:50:10.081Z,3.30
2023-02-24T02:55:17.277Z,3.15
2023-02-24T03:00:29.422Z,2.80
2023-02-24T03:05:46.469Z,3.60
2023-02-24T03:10:51.173Z,3.08
2023-02-24T03:15:55.348Z,2.97
2023-02-24T03:21:07.931Z,2.78
2023-02-24T03:26:21.857Z,3.17
2023-02-24T03:31:34.608Z,3.10
2023-02-24T03:36:36.938Z,2.97
2023-02-24T03:41:49.143Z,3.30
2023-02-24T03:46:52.671Z,3.20
2023-02-24T03:52:13.840Z,3.03
2023-02-24T04:02:32.834Z,3.70
2023-02-24T04:07:53.109Z,3.20
2023-02-24T04:13:14.891Z,3.05
2023-02-24T04:18:27.917Z,3.35
2023-02-24T04:23:34.019Z,3.42
2023-02-24T04:28:36.150Z,2.83
2023-02-24T04:33:40.307Z,3.40
2023-02-24T04:38:45.900Z,3.95
2023-02-24T04:43:50.866Z,3.40
2023-02-24T04:48:53.053Z,2.97
2023-02-24T04:53:55.388Z,3.08
2023-02-24T04:58:57.406Z,2.95
2023-02-24T05:04:00.197Z,3.58
2023-02-24T05:09:10.805Z,3.15
2023-02-24T05:14:16.718Z,3.15
2023-02-24T05:19:38.856Z,2.97
2023-02-24T05:24:41.081Z,2.80
2023-02-24T05:29:44.108Z,2.85
2023-02-24T05:34:46.115Z,3.22
2023-02-24T05:39:48.098Z,2.88
2023-02-24T05:44:50.325Z,3.80
2023-02-24T05:49:54.274Z,3.22
2023-02-24T05:54:56.426Z,3.35
2023-02-24T05:59:58.705Z,3.45
2023-02-24T06:05:00.956Z,2.83
2023-02-24T06:10:04.764Z,3.25
2023-02-24T06:15:07.670Z,3.15
2023-02-24T06:20:15.450Z,3.22
2023-02-24T06:25:18.512Z,2.65
2023-02-24T06:30:25.204Z,2.97
2023-02-24T06:35:27.572Z,2.53
2023-02-24T06:40:31.397Z,2.75
2023-02-24T06:45:33.709Z,2.65
2023-02-24T06:50:35.701Z,2.28
2023-02-24T06:55:37.755Z,2.78
2023-02-24T07:00:39.897Z,1.95
2023-02-24T07:05:50.662Z,2.65
2023-02-24T07:15:56.733Z,2.63
2023-02-24T07:21:05.049Z,3.33
2023-02-24T07:26:16.898Z,2.53
2023-02-24T07:31:22.296Z,2.90
2023-02-24T07:36:29.866Z,2.28
2023-02-24T07:41:31.991Z,2.25
2023-02-24T07:46:34.080Z,2.50
2023-02-24T07:51:36.300Z,2.40
2023-02-24T07:56:46.054Z,2.28
2023-02-24T08:01:50.854Z,2.10
2023-02-24T08:06:56.315Z,1.80
2023-02-24T08:11:58.406Z,1.67
2023-02-24T08:17:05.519Z,1.70
2023-02-24T08:22:19.490Z,1.80
2023-02-24T08:27:26.401Z,1.85
2023-02-24T08:32:43.400Z,2.03
2023-02-24T08:37:51.076Z,2.25
2023-02-24T08:42:53.172Z,2.00
2023-02-24T08:48:00.598Z,2.20
2023-02-24T08:53:02.800Z,1.90
2023-02-24T08:58:11.129Z,2.33
2023-02-24T09:03:16.403Z,2.35
2023-02-24T09:08:24.009Z,1.75
2023-02-24T09:13:33.024Z,2.50
2023-02-24T09:18:38.501Z,2.47
2023-02-24T09:23:46.059Z,2.33
2023-02-24T09:28:55.607Z,2.28
2023-02-24T09:34:01.558Z,2.53
2023-02-24T09:39:03.676Z,2.33
2023-02-24T09:44:18.136Z,2.53
2023-02-24T09:49:40.111Z,2.10
2023-02-24T09:55:03.378Z,2.55
2023-02-24T10:00:24.846Z,2.72
2023-02-24T10:05:49.579Z,3.13
2023-02-24T10:11:08.572Z,2.67
2023-02-24T10:16:15.933Z,2.78
2023-02-24T10:22:00.310Z,2.65
2023-02-24T10:27:08.460Z,2.80
2023-02-24T10:32:33.903Z,2.97
2023-02-24T10:37:36.024Z,2.83
2023-02-24T10:42:45.844Z,3.25
2023-02-24T10:47:57.291Z,2.83
2023-02-24T10:53:34.668Z,3.08
2023-02-24T10:58:55.225Z,2.65
2023-02-24T11:04:12.384Z,3.50
2023-02-24T11:09:29.485Z,3.17
2023-02-24T11:14:53.929Z,3.38
2023-02-24T11:20:10.742Z,3.67
2023-02-24T11:25:24.423Z,3.65
2023-02-24T11:30:32.890Z,4.00
2023-02-24T11:35:56.652Z,3.75
2023-02-24T11:41:07.965Z,3.47
2023-02-24T11:51:26.069Z,3.45
2023-02-24T11:56:33.133Z,4.28
2023-02-24T12:01:35.167Z,3.53
2023-02-24T12:06:49.789Z,3.95
2023-02-24T12:12:05.167Z,3.40
2023-02-24T12:17:23.391Z,3.72
2023-02-24T12:22:34.635Z,4.00
2023-02-24T12:27:58.561Z,4.32
2023-02-24T12:33:23.226Z,4.10
2023-02-24T12:38:38.349Z,3.92
2023-02-24T12:44:02.347Z,4.35
2023-02-24T12:49:17.833Z,3.03
2023-02-24T12:54:29.316Z,3.53
2023-02-24T12:59:37.896Z,3.17
2023-02-24T13:05:04.165Z,3.90
2023-02-24T13:10:22.120Z,3.13
2023-02-24T13:15:27.269Z,3.58
2023-02-24T13:20:33.910Z,3.90
2023-02-24T13:25:37.358Z,4.22
2023-02-24T13:30:44.241Z,5.45
2023-02-24T13:35:52.694Z,5.30
2023-02-24T13:41:06.999Z,5.75
2023-02-24T13:46:18.759Z,6.80
2023-02-24T13:51:49.958Z,5.43
2023-02-24T13:57:41.444Z,6.30
2023-02-24T14:02:44.359Z,5.45
2023-02-24T14:07:50.438Z,7.90
2023-02-24T14:13:21.929Z,7.88
2023-02-24T14:18:27.139Z,9.05
2023-02-24T14:23:32.409Z,8.98
2023-02-24T14:28:37.388Z,9.48
2023-02-24T14:33:42.204Z,8.93
2023-02-24T14:38:45.120Z,6.05
2023-02-24T14:43:47.429Z,6.50
2023-02-24T14:48:55.962Z,5.88
2023-02-24T14:54:04.740Z,4.90
2023-02-24T14:59:16.007Z,3.60
2023-02-24T15:04:39.892Z,3.30
2023-02-24T15:09:44.003Z,3.60
2023-02-24T15:15:18.838Z,3.20
2023-02-24T15:20:33.259Z,2.00
2023-02-24T15:25:51.183Z,2.17
2023-02-24T15:31:00.974Z,2.50
2023-02-24T15:36:08.551Z,2.50
2023-02-24T15:41:12.375Z,2.10
2023-02-24T15:46:32.694Z,2.53
2023-02-24T15:51:40.841Z,2.22
2023-02-24T15:56:43.617Z,2.13
2023-02-24T16:01:45.676Z,2.10
2023-02-24T16:06:54.714Z,2.60
2023-02-24T16:11:57.113Z,1.63
2023-02-24T16:17:01.441Z,1.60
2023-02-24T16:22:03.535Z,2.00
2023-02-24T16:27:06.193Z,1.90
2023-02-24T16:32:11.270Z,1.88
2023-02-24T16:37:22.994Z,1.70
2023-02-24T16:42:25.104Z,1.77
2023-02-24T16:47:27.580Z,2.03
2023-02-24T16:52:29.675Z,1.42
2023-02-24T16:57:31.810Z,1.90
2023-02-24T17:02:33.971Z,2.10
2023-02-24T17:07:39.255Z,1.52
2023-02-24T17:12:41.347Z,1.75
2023-02-24T17:17:43.615Z,1.40
2023-02-24T17:22:46.150Z,1.45
2023-02-24T17:27:48.633Z,1.67
2023-02-24T17:32:50.818Z,1.40
2023-02-24T17:37:53.083Z,1.60
2023-02-24T17:42:55.168Z,1.73
2023-02-24T17:47:57.365Z,2.00
2023-02-24T17:52:59.666Z,1.58
2023-02-24T17:58:01.930Z,2.03
2023-02-24T18:03:04.453Z,2.20
2023-02-24T18:08:06.650Z,1.95
2023-02-24T18:13:08.819Z,2.75
2023-02-24T18:18:10.919Z,3.00
2023-02-24T18:23:13.523Z,3.65
2023-02-24T18:28:15.591Z,2.55
2023-02-24T18:33:17.720Z,2.40
2023-02-24T18:38:19.806Z,2.25
2023-02-24T18:43:22.017Z,2.42
2023-02-24T18:48:24.735Z,2.60
2023-02-24T18:53:30.133Z,2.67
2023-02-24T18:58:32.656Z,3.05
2023-02-24T19:03:34.802Z,3.03
2023-02-24T19:08:37.859Z,2.55
2023-02-24T19:13:40.061Z,3.15
2023-02-24T19:18:42.865Z,2.45
2023-02-24T19:23:45.179Z,2.97
2023-02-24T19:28:47.454Z,2.92
2023-02-24T19:34:00.206Z,3.47
2023-02-24T19:39:02.926Z,3.20
2023-02-24T19:44:05.015Z,3.25
2023-02-24T19:49:07.153Z,3.65
2023-02-24T19:54:11.617Z,2.40
2023-02-24T19:59:14.048Z,2.80
2023-02-24T20:04:16.206Z,2.38
2023-02-24T20:09:23.239Z,2.60
2023-02-24T20:14:27.686Z,2.13
2023-02-24T20:19:29.855Z,2.20
2023-02-24T20:24:34.942Z,2.80
2023-02-24T20:29:37.538Z,2.53
2023-02-24T20:34:39.801Z,3.00
2023-02-24T20:39:42.405Z,3.42
2023-02-24T20:44:44.598Z,3.08
2023-02-24T20:49:46.806Z,3.50
2023-02-24T20:54:49.153Z,2.95
2023-02-24T21:00:02.868Z,4.28
2023-02-24T21:05:06.584Z,4.03
2023-02-24T21:10:09.191Z,3.92
2023-02-24T21:15:14.656Z,4.47
2023-02-24T21:20:16.874Z,4.50
2023-02-24T21:25:19.121Z,3.95
2023-02-24T21:30:21.224Z,3.40
2023-02-24T21:35:23.326Z,2.72
2023-02-24T21:40:25.787Z,3.17
2023-02-24T21:45:27.922Z,2.60
2023-02-24T21:50:29.969Z,2.40
2023-02-24T21:55:34.002Z,2.35
2023-02-24T22:00:36.087Z,2.70
2023-02-24T22:05:38.077Z,2.60
2023-02-24T22:10:40.072Z,3.03
2023-02-24T22:15:42.115Z,2.85
2023-02-24T22:20:44.205Z,3.08
2023-02-24T22:25:46.303Z,3.28
2023-02-24T22:30:56.051Z,3.10
2023-02-24T22:36:03.466Z,2.72
2023-02-24T22:41:09.411Z,2.70
2023-02-24T22:46:17.807Z,3.10
2023-02-24T22:51:20.006Z,3.42
2023-02-24T22:56:25.433Z,2.92
2023-02-24T23:01:32.898Z,1.40
2023-02-24T23:06:36.081Z,1.00
2023-02-24T23:11:43.075Z,1.42
2023-02-24T23:16:47.250Z,1.48
2023-02-24T23:21:52.109Z,1.23
2023-02-24T23:26:57.251Z,1.20
2023-02-24T23:31:59.651Z,1.13
2023-02-24T23:37:01.669Z,1.30
2023-02-24T23:42:03.724Z,1.85
2023-02-24T23:47:05.867Z,1.27
2023-02-24T23:52:08.196Z,1.67
2023-02-24T23:57:10.286Z,1.85
